Time;durP1;ratioP1;P1;durP2;ratioP2;P2;SDS_P1;SDS_P2;PMS_P1;PMS_P2;Temp;Humidity;BMP_temperature;BMP_pressure;BME280_temperature;BME280_humidity;BME280_pressure;Samples;Min_cycle;Max_cycle;Signal;HPM_P1;HPM_P2
2023/04/01 07:52:17;;;;;;;0.50;0.40;;;;;;;;;;5112404;27;43542;-56
2023/04/01 07:54:59;;;;;;;0.77;0.50;;;;;;;;;;5098034;27;43674;-53
2023/04/01 07:57:39;;;;;;;0.55;0.40;;;;;;;;;;5099181;27;43436;-51
2023/04/01 08:00:07;;;;;;;1.48;0.60;;;;;;;;;;5096082;27;43585;-51
2023/04/01 08:03:07;;;;;;;1.80;0.70;;;;;;;;;;5092259;27;45005;-47
2023/04/01 08:05:41;;;;;;;0.57;0.40;;;;;;;;;;5090717;27;43711;-46
2023/04/01 08:12:28;;;;;;;0.88;0.60;;;;;;;;;;5114850;27;43534;-47
2023/04/01 08:15:15;;;;;;;0.95;0.47;;;;;;;;;;5117600;27;43378;-50
2023/04/01 08:18:12;;;;;;;0.45;0.45;;;;;;;;;;5115480;27;43501;-46
2023/04/01 08:25:26;;;;;;;1.08;0.70;;;18.60;69.70;;;;;;5117205;27;43435;-42
2023/04/01 08:28:05;;;;;;;0.60;0.60;;;;;;;;;;5100621;27;43417;-34
2023/04/01 08:30:59;;;;;;;2.38;0.60;;;;;;;;;;5099817;27;43462;-35
2023/04/01 08:33:29;;;;;;;3.55;0.70;;;;;;;;;;5098965;27;43561;-35
2023/04/01 08:36:16;;;;;;;1.88;0.82;;;18.50;69.40;;;;;;5109410;27;44039;-35
2023/04/01 08:38:52;;;;;;;1.58;0.80;;;;;;;;;;5097445;27;44096;-35
2023/04/01 08:41:39;;;;;;;0.73;0.40;;;;;;;;;;5100355;27;43478;-35
2023/04/01 08:44:39;;;;;;;2.15;0.68;;;;;;;;;;5088045;27;43615;-35
2023/04/01 08:47:38;;;;;;;2.17;1.00;;;18.60;68.10;;;;;;5094512;27;45332;-35
2023/04/01 08:50:23;;;;;;;2.53;2.05;;;;;;;;;;5098703;27;43680;-35
2023/04/01 08:53:03;;;;;;;3.20;1.88;;;;;;;;;;5093627;27;43414;-35
2023/04/01 08:55:37;;;;;;;1.67;1.15;;;;;;;;;;5093036;27;43604;-35
2023/04/01 08:58:19;;;;;;;1.40;1.30;;;;;;;;;;5115941;27;45252;-35
2023/04/01 09:01:05;;;;;;;1.83;1.10;;;;;;;;;;5116027;27;43837;-35
2023/04/01 09:03:57;;;;;;;1.38;1.00;;;;;;;;;;5105304;27;43422;-35
2023/04/01 09:06:37;;;;;;;1.65;0.82;;;;;;;;;;5098402;27;43474;-35
2023/04/01 09:09:14;;;;;;;1.40;0.70;;;;;;;;;;5098030;27;44777;-35
2023/04/01 09:11:51;;;;;;;2.00;0.80;;;;;;;;;;5115795;27;43425;-34
2023/04/01 09:14:32;;;;;;;1.60;0.75;;;;;;;;;;5109613;27;43479;-35
2023/04/01 09:17:48;;;;;;;1.10;0.73;;;;;;;;;;5086671;27;43598;-35
2023/04/01 09:20:28;;;;;;;0.60;0.60;;;;;;;;;;5096156;27;44944;-35
2023/04/01 09:23:00;;;;;;;1.95;0.90;;;;;;;;;;5090462;27;43678;-35
2023/04/01 09:25:34;;;;;;;0.45;0.45;;;;;;;;;;5097848;27;43458;-35
2023/04/01 09:28:20;;;;;;;1.10;0.63;;;;;;;;;;5102709;27;43541;-35
2023/04/01 09:31:07;;;;;;;1.15;0.50;;;;;;;;;;5092680;27;43818;-35
2023/04/01 09:34:01;;;;;;;0.60;0.60;;;;;;;;;;5096420;27;43882;-35
2023/04/01 09:36:46;;;;;;;0.60;0.60;;;;;;;;;;5081336;27;43449;-34
2023/04/01 09:39:32;;;;;;;1.00;0.60;;;;;;;;;;5086736;27;43560;-35
2023/04/01 09:42:00;;;;;;;0.50;0.50;;;;;;;;;;5077955;28;44837;-35
2023/04/01 09:44:54;;;;;;;0.85;0.70;;;;;;;;;;5081264;27;43895;-38
2023/04/01 09:47:40;;;;;;;0.73;0.32;;;;;;;;;;5079164;27;43514;-35
2023/04/01 09:50:28;;;;;;;1.42;0.50;;;;;;;;;;5096339;27;43490;-35
2023/04/01 09:53:02;;;;;;;2.60;0.63;;;;;;;;;;5082387;27;45091;-35
2023/04/01 09:56:07;;;;;;;1.08;0.60;;;18.70;53.60;;;;;;5082545;27;44025;-35
2023/04/01 09:58:46;;;;;;;0.90;0.85;;;;;;;;;;5079726;28;44005;-35
2023/04/01 10:01:58;;;;;;;0.95;0.57;;;18.80;53.40;;;;;;5081606;27;43509;-35
2023/04/01 10:04:43;;;;;;;1.48;0.40;;;;;;;;;;5084118;27;44116;-38
2023/04/01 10:07:18;;;;;;;2.60;0.77;;;;;;;;;;5097597;27;43500;-37
2023/04/01 10:09:46;;;;;;;4.03;0.50;;;;;;;;;;5083089;28;43508;-38
2023/04/01 10:46:59;;;;;;;0.52;0.50;;;;;;;;;;5117019;27;43546;-43
2023/04/01 10:49:30;;;;;;;2.65;0.50;;;;;;;;;;5117570;27;43664;-58
2023/04/01 10:52:01;;;;;;;1.67;0.60;;;;;;;;;;5111377;27;43501;-57
2023/04/01 10:55:01;;;;;;;0.60;0.38;;;;;;;;;;5091583;27;43473;-60
2023/04/01 10:58:27;;;;;;;0.52;0.30;;;;;;;;;;5115553;27;45011;-59
2023/04/01 11:01:32;;;;;;;1.05;0.65;;;;;;;;;;5084446;27;43934;-53
2023/04/01 11:04:19;;;;;;;0.70;0.50;;;;;;;;;;5114562;27;43550;-58
2023/04/01 11:07:39;;;;;;;0.68;0.40;;;19.90;56.20;;;;;;5116799;27;43510;-57
2023/04/01 11:10:07;;;;;;;1.10;0.57;;;;;;;;;;5115487;27;43985;-56
2023/04/01 11:13:00;;;;;;;0.50;0.40;;;;;;;;;;5118080;27;43949;-47
2023/04/01 11:15:37;;;;;;;1.35;0.60;;;;;;;;;;5107760;27;43519;-59
2023/04/01 11:18:24;;;;;;;0.85;0.47;;;;;;;;;;5098926;27;43533;-49
2023/04/01 11:21:13;;;;;;;1.90;0.63;;;;;;;;;;5115815;27;44725;-52
2023/04/01 11:23:41;;;;;;;0.57;0.47;;;;;;;;;;5115878;27;43427;-61
2023/04/01 11:26:30;;;;;;;0.50;0.40;;;;;;;;;;5117144;27;43473;-59
2023/04/01 11:29:38;;;;;;;1.67;0.60;;;;;;;;;;5103571;27;43649;-57
2023/04/01 11:32:36;;;;;;;0.88;0.40;;;;;;;;;;5116253;27;44060;-54
2023/04/01 11:35:04;;;;;;;;;;;;;;;;;;5114417;27;43743;-62
2023/04/01 11:37:34;;;;;;;0.43;0.35;;;;;;;;;;5116349;27;43552;-52
2023/04/01 11:40:33;;;;;;;1.17;0.70;;;;;;;;;;5117885;27;43440;-52
2023/04/01 11:44:07;;;;;;;1.13;0.55;;;20.10;69.10;;;;;;5116147;27;45122;-56
2023/04/01 11:46:57;;;;;;;1.60;0.63;;;;;;;;;;5119201;27;43471;-60
2023/04/01 11:49:45;;;;;;;0.82;0.50;;;20.00;66.90;;;;;;5109944;27;43528;-61
2023/04/01 11:52:58;;;;;;;0.50;0.38;;;20.00;54.60;;;;;;5111173;27;43461;-61
2023/04/01 11:55:40;;;;;;;0.90;0.40;;;20.10;68.90;;;;;;5115636;27;44893;-65
2023/04/01 11:58:14;;;;;;;0.90;0.28;;;;;;;;;;5104733;27;43712;-56
2023/04/01 12:01:08;;;;;;;0.30;0.30;;;20.00;54.70;;;;;;5097025;27;43380;-57
2023/04/01 12:03:47;;;;;;;0.80;0.50;;;;;;;;;;5096252;27;43419;-59
2023/04/01 12:06:21;;;;;;;1.10;0.40;;;;;;;;;;5094870;27;44203;-58
2023/04/01 12:09:01;;;;;;;0.30;0.30;;;;;;;;;;5103403;27;43435;-60
2023/04/01 12:11:35;;;;;;;0.82;0.40;;;;;;;;;;5098921;27;43471;-64
2023/04/01 12:14:22;;;;;;;1.00;0.50;;;20.10;67.70;;;;;;5102512;27;43557;-57
2023/04/01 12:16:52;;;;;;;0.30;0.30;;;;;;;;;;5104447;27;44711;-59
2023/04/01 12:19:47;;;;;;;1.20;0.30;;;19.90;55.90;;;;;;5099930;27;44024;-47
2023/04/01 12:22:18;;;;;;;1.25;0.40;;;;;;;;;;5102166;27;43450;-48
2023/04/01 12:24:47;;;;;;;1.55;0.30;;;;;;;;;;5103911;27;43525;-47
2023/04/01 12:27:15;;;;;;;0.22;0.22;;;;;;;;;;5102651;27;44062;-48
2023/04/01 12:29:49;;;;;;;1.00;0.35;;;;;;;;;;5101649;27;43998;-48
2023/04/01 12:32:17;;;;;;;0.57;0.38;;;;;;;;;;5097892;27;43428;-49
2023/04/01 12:34:57;;;;;;;1.33;0.60;;;;;;;;;;5098836;27;44136;-47
2023/04/01 12:37:58;;;;;;;0.77;0.38;;;19.90;55.50;;;;;;5102065;27;44657;-47
2023/04/01 12:40:40;;;;;;;0.47;0.30;;;19.90;70.00;;;;;;5099354;27;43992;-48
2023/04/01 12:43:23;;;;;;;0.65;0.47;;;;;;;;;;5097021;27;43458;-47
2023/04/01 12:46:09;;;;;;;1.70;0.40;;;20.00;55.70;;;;;;5102176;27;43568;-47
2023/04/01 12:48:46;;;;;;;0.60;0.40;;;;;;;;;;5103915;27;44892;-47
2023/04/01 12:51:27;;;;;;;0.52;0.30;;;;;;;;;;5101949;27;43968;-47
2023/04/01 12:54:10;;;;;;;0.60;0.47;;;;;;;;;;5096532;27;43462;-48
2023/04/01 12:56:45;;;;;;;0.30;0.30;;;;;;;;;;5100148;27;43363;-49
2023/04/01 12:59:46;;;;;;;0.40;0.30;;;19.90;55.70;;;;;;5100478;27;43732;-48
2023/04/01 13:02:21;;;;;;;0.30;0.30;;;;;;;;;;5099030;27;44045;-51
2023/04/01 13:52:19;;;;;;;125.07;60.93;;;;;;;;;;5140788;27;1452973;-72
2023/04/01 13:54:50;;;;;;;158.65;77.30;;;;;;;;;;5150998;27;44021;-67
2023/04/01 14:04:26;;;;;;;52.35;22.70;;;;;;;;;;5113746;27;43457;-59
2023/04/01 14:07:20;;;;;;;38.50;15.25;;;17.30;56.20;;;;;;5097882;27;43454;-59
2023/04/01 14:10:06;;;;;;;23.10;9.73;;;17.60;56.60;;;;;;5087482;27;43534;-58
2023/04/01 14:12:50;;;;;;;15.13;6.75;;;;;;;;;;5089825;27;43565;-58
2023/04/01 14:15:29;;;;;;;11.82;5.78;;;;;;;;;;5090413;27;44007;-62
2023/04/01 14:17:57;;;;;;;9.63;3.97;;;;;;;;;;5096559;27;43573;-58
2023/04/01 14:20:41;;;;;;;8.60;3.35;;;17.30;71.10;;;;;;5078902;27;43408;-58
2023/04/01 14:23:34;;;;;;;4.75;2.28;;;;;;;;;;5089078;27;43549;-58
2023/04/01 14:26:28;;;;;;;65.53;24.52;;;;;;;;;;5097614;27;44955;-58
2023/04/01 14:56:03;;;;;;;86.05;30.92;;;;;;;;;;5066398;27;1435907;-71
2023/04/01 14:58:40;;;;;;;75.47;27.30;;;;;;;;;;5100109;27;43514;-62
2023/04/01 15:01:26;;;;;;;77.63;26.60;;;;;;;;;;5107837;27;43463;-63
2023/04/01 15:03:57;;;;;;;67.78;23.05;;;;;;;;;;5090628;27;43462;-63
2023/04/01 15:06:43;;;;;;;64.35;23.25;;;;;;;;;;5102733;27;44782;-65
2023/04/01 15:09:26;;;;;;;46.90;17.50;;;;;;;;;;5088495;27;43660;-64
2023/04/01 15:12:03;;;;;;;40.78;15.05;;;;;;;;;;5088310;27;43492;-60
2023/04/01 15:14:40;;;;;;;40.83;13.82;;;;;;;;;;5104302;27;43529;-65
2023/04/01 15:17:14;;;;;;;38.33;13.93;;;;;;;;;;5102519;27;44040;-64
2023/04/01 15:19:54;;;;;;;34.72;13.10;;;;;;;;;;5098015;27;43437;-63
2023/04/01 15:22:38;;;;;;;30.38;11.40;;;;;;;;;;5080900;27;43957;-64
2023/04/01 15:25:09;;;;;;;21.75;8.88;;;;;;;;;;5099623;27;43565;-62
2023/04/01 15:27:42;;;;;;;27.50;10.57;;;;;;;;;;5107857;27;44942;-63
2023/04/01 15:30:10;;;;;;;22.35;8.93;;;;;;;;;;5103612;27;43451;-64
2023/04/01 15:33:26;;;;;;;19.02;8.13;;;16.50;71.10;;;;;;5101760;27;43951;-63
2023/04/01 15:36:09;;;;;;;19.63;8.02;;;;;;;;;;5044836;27;43929;-64
2023/04/01 15:38:50;;;;;;;17.20;6.18;;;16.40;65.90;;;;;;5099589;27;44059;-60
2023/04/01 15:41:42;;;;;;;14.38;5.70;;;16.40;66.30;;;;;;5098390;27;43478;-60
2023/04/01 15:44:38;;;;;;;8.70;4.63;;;16.30;57.30;;;;;;5094377;27;43417;-64
2023/04/01 15:47:21;;;;;;;9.75;4.32;;;;;;;;;;5105784;27;43502;-64
2023/04/01 15:49:53;;;;;;;13.07;4.88;;;;;;;;;;5074740;27;45942;-64
2023/04/01 15:52:34;;;;;;;9.82;4.18;;;;;;;;;;5083269;27;44875;-60
2023/04/01 15:55:02;;;;;;;11.05;4.57;;;;;;;;;;5098413;27;43548;-63
2023/04/01 15:57:35;;;;;;;8.70;3.80;;;;;;;;;;5099458;27;43474;-63
2023/04/01 16:00:07;;;;;;;8.45;3.55;;;;;;;;;;5085661;27;44195;-64
2023/04/01 16:02:49;;;;;;;6.28;3.22;;;;;;;;;;5080498;27;43851;-64
2023/04/01 16:05:32;;;;;;;7.90;3.03;;;;;;;;;;5097864;27;43657;-67
2023/04/01 16:17:16;;;;;;;60.55;23.70;;;;;;;;;;5126397;27;1440256;-64
2023/04/01 16:24:18;;;;;;;48.30;15.75;;;;;;;;;;5148493;27;43586;-61
2023/04/01 16:27:04;;;;;;;41.72;13.73;;;;;;;;;;5140405;27;43448;-63
2023/04/01 16:29:46;;;;;;;29.70;9.40;;;;;;;;;;5152788;27;43956;-60
2023/04/01 16:32:35;;;;;;;25.50;8.07;;;;;;;;;;5147140;27;43509;-61
2023/04/01 16:35:05;;;;;;;25.42;8.18;;;;;;;;;;5144077;27;44277;-60
2023/04/01 16:37:54;;;;;;;20.58;6.90;;;;;;;;;;5124280;27;43430;-64
2023/04/01 16:40:28;;;;;;;18.30;6.00;;;;;;;;;;5122722;27;43435;-61
2023/04/01 16:43:07;;;;;;;16.58;5.60;;;;;;;;;;5128242;27;43672;-62
2023/04/01 16:45:49;;;;;;;17.13;6.30;;;;;;;;;;5151006;27;43784;-61
2023/04/01 16:48:31;;;;;;;50.25;23.92;;;;;;;;;;5129630;27;43426;-61
2023/04/01 16:50:58;;;;;;;47.13;22.88;;;;;;;;;;5140665;27;43405;-64
2023/04/01 17:13:01;;;;;;;3.05;1.30;;;;;;;;;;5144412;27;43570;-67
2023/04/01 17:15:29;;;;;;;1.63;1.20;;;;;;;;;;5125116;27;43797;-67
2023/04/01 17:17:57;;;;;;;3.13;1.20;;;;;;;;;;5128501;27;43506;-67
2023/04/01 17:20:25;;;;;;;1.70;1.13;;;;;;;;;;5130043;27;43565;-66
2023/04/01 17:22:52;;;;;;;2.60;1.23;;;;;;;;;;5123228;27;44071;-67
2023/04/01 17:25:34;;;;;;;2.70;1.25;;;;;;;;;;5122545;27;43977;-67
2023/04/01 17:28:18;;;;;;;2.05;1.40;;;;;;;;;;5123007;27;43413;-67
2023/04/01 17:30:46;;;;;;;;;;;;;;;;;;5130249;27;43625;-66
2023/04/01 17:33:25;;;;;;;3.15;1.17;;;;;;;;;;5123979;27;45165;-67
2023/04/01 17:35:55;;;;;;;2.95;1.20;;;;;;;;;;5124351;27;43965;-68
2023/04/01 17:38:41;;;;;;;3.55;1.33;;;;;;;;;;5124258;27;43418;-68
2023/04/01 17:41:17;;;;;;;1.52;1.20;;;;;;;;;;5124243;27;43442;-67
2023/04/01 17:43:49;;;;;;;3.83;1.30;;;;;;;;;;5121543;27;44990;-67
2023/04/01 17:46:20;;;;;;;3.80;1.50;;;;;;;;;;5130178;27;43461;-67
2023/04/01 17:48:54;;;;;;;1.85;1.20;;;;;;;;;;5121503;27;43987;-67
2023/04/01 17:51:31;;;;;;;2.30;1.30;;;;;;;;;;5127363;27;43474;-68
2023/04/01 17:54:28;;;;;;;1.85;1.33;;;;;;;;;;5104653;27;44061;-67
2023/04/01 17:56:55;;;;;;;2.35;1.20;;;;;;;;;;5113549;27;43453;-67
2023/04/01 17:59:36;;;;;;;1.20;1.05;;;;;;;;;;5129538;27;43441;-68
2023/04/01 18:02:26;;;;;;;2.40;1.23;;;;;;;;;;5124375;27;43533;-67
2023/04/01 18:05:03;;;;;;;3.53;1.40;;;;;;;;;;5124400;27;44789;-67
2023/04/01 18:07:37;;;;;;;2.60;1.35;;;;;;;;;;5106145;27;43528;-67
2023/04/01 18:10:04;;;;;;;3.58;1.52;;;;;;;;;;5125970;27;43803;-68
2023/04/01 18:12:38;;;;;;;3.42;1.13;;;;;;;;;;5125325;27;43540;-67
2023/04/01 18:15:09;;;;;;;2.05;1.42;;;;;;;;;;5127817;27;44981;-68
2023/04/01 18:17:49;;;;;;;2.83;1.50;;;;;;;;;;5125930;27;43449;-67
2023/04/01 18:20:38;;;;;;;2.20;1.27;;;;;;;;;;5123578;27;43453;-67
2023/04/01 18:23:18;;;;;;;1.60;1.30;;;;;;;;;;5113230;27;43508;-68
2023/04/01 18:25:48;;;;;;;2.50;1.40;;;;;;;;;;5111966;27;44831;-67
2023/04/01 18:28:19;;;;;;;1.83;1.20;;;;;;;;;;5113469;27;43463;-67
2023/04/01 18:30:56;;;;;;;1.95;1.20;;;;;;;;;;5112289;27;43477;-67
2023/04/01 18:33:43;;;;;;;2.80;1.27;;;;;;;;;;5107537;27;43456;-67
2023/04/01 18:36:18;;;;;;;3.38;1.50;;;;;;;;;;5111379;27;45010;-67
2023/04/01 18:38:57;;;;;;;2.60;1.20;;;;;;;;;;5113251;27;44152;-67
2023/04/01 18:41:33;;;;;;;3.63;1.55;;;;;;;;;;5091379;27;43431;-67
2023/04/01 18:44:02;;;;;;;1.38;1.20;;;;;;;;;;5108552;27;43548;-67
2023/04/01 18:46:49;;;;;;;1.58;1.20;;;;;;;;;;5108191;27;43816;-67
2023/04/01 18:49:35;;;;;;;1.20;1.13;;;;;;;;;;5107875;27;43469;-68
2023/04/01 18:52:14;;;;;;;2.70;1.30;;;;;;;;;;5110908;27;43352;-67
2023/04/01 18:54:46;;;;;;;1.65;1.50;;;;;;;;;;5114711;27;43448;-67
2023/04/01 19:23:01;;;;;;;1.77;1.27;;;;;;;;;;5132027;27;43596;-41
2023/04/01 19:25:36;;;;;;;3.00;1.27;;;;;;;;;;5093048;27;70477;-41
2023/04/01 19:28:24;;;;;;;1.63;1.17;;;;;;;;;;5046069;28;43684;-40
2023/04/01 19:30:55;;;;;;;2.85;1.38;;;;;;;;;;5043641;28;45696;-41
2023/04/01 19:33:35;;;;;;;1.85;1.45;;;;;;;;;;5044522;28;43966;-41
2023/04/01 19:36:12;;;;;;;3.33;1.52;;;;;;;;;;5055577;28;68238;-41
2023/04/01 19:39:01;;;;;;;2.00;1.08;;;;;;;;;;5072307;28;43445;-41
2023/04/01 19:41:52;;;;;;;2.50;1.30;;;;;;;;;;5068001;28;43459;-41
2023/04/01 19:44:29;;;;;;;1.52;1.27;;;;;;;;;;5033537;28;43873;-41
2023/04/01 19:47:17;;;;;;;2.42;1.55;;;;;;;;;;5069039;28;43985;-41
2023/04/01 19:49:50;;;;;;;1.23;1.00;;;;;;;;;;5040874;28;43460;-41
2023/04/01 19:52:23;;;;;;;3.35;1.20;;;;;;;;;;5072921;28;43486;-41
2023/04/01 19:54:54;;;;;;;3.75;1.55;;;;;;;;;;5068078;27;44709;-41
2023/04/01 19:57:44;;;;;;;1.63;1.27;;;;;;;;;;5070479;27;43805;-41
2023/04/01 20:00:12;;;;;;;;;;;;;;;;;;5063539;28;43534;-41
2023/04/01 20:02:39;;;;;;;1.83;1.27;;;;;;;;;;5067858;28;43472;-41
2023/04/01 20:05:20;;;;;;;1.98;1.35;;;;;;;;;;5070235;28;44795;-42
2023/04/01 20:07:52;;;;;;;2.08;1.40;;;;;;;;;;5076166;28;44015;-42
2023/04/01 20:10:30;;;;;;;2.15;1.13;;;;;;;;;;5070111;28;43453;-41
2023/04/01 20:13:04;;;;;;;3.33;1.70;;;;;;;;;;5056640;28;43502;-41
2023/04/01 20:15:34;;;;;;;1.75;1.23;;;;;;;;;;5075787;28;44711;-42
2023/04/01 20:18:07;;;;;;;1.60;1.38;;;;;;;;;;5062345;28;44193;-41
2023/04/01 20:20:35;;;;;;;2.80;1.00;;;;;;;;;;5061904;28;43549;-41
2023/04/01 20:23:11;;;;;;;2.97;1.02;;;;;;;;;;5068690;28;43530;-41
2023/04/01 20:25:52;;;;;;;2.22;1.00;;;;;;;;;;5070263;28;43889;-41
2023/04/01 20:28:22;;;;;;;2.65;1.20;;;;;;;;;;5072139;28;43465;-41
2023/04/01 20:31:16;;;;;;;1.95;1.17;;;;;;;;;;5072493;28;43448;-41
2023/04/01 20:33:58;;;;;;;3.28;1.02;;;;;;;;;;5057078;28;43577;-40
2023/04/01 20:36:44;;;;;;;2.88;1.27;;;;;;;;;;5055339;28;44884;-40
2023/04/01 20:39:20;;;;;;;2.15;1.23;;;;;;;;;;5050878;28;43943;-40
2023/04/01 20:41:51;;;;;;;1.10;1.00;;;;;;;;;;5052367;28;43449;-40
2023/04/01 20:44:19;;;;;;;2.28;1.20;;;;;;;;;;5053301;28;43522;-40
2023/04/01 20:46:56;;;;;;;1.25;1.13;;;;;;;;;;5050973;28;43786;-40
2023/04/01 20:49:27;;;;;;;3.20;1.52;;;;;;;;;;5054009;28;43398;-40
2023/04/01 20:52:01;;;;;;;3.20;1.35;;;;;;;;;;5057311;28;43542;-40
2023/04/01 20:54:48;;;;;;;1.65;0.90;;;;;;;;;;5048834;28;43480;-40
2023/04/01 20:57:42;;;;;;;2.58;1.48;;;;;;;;;;5053547;28;43904;-41
2023/04/01 21:00:16;;;;;;;3.35;1.40;;;;;;;;;;5050187;28;44019;-40
2023/04/01 21:02:46;;;;;;;2.33;1.15;;;;;;;;;;5053298;28;43444;-40
2023/04/01 21:05:20;;;;;;;2.10;1.25;;;;;;;;;;5052693;28;44008;-40
2023/04/01 21:08:10;;;;;;;2.55;1.10;;;;;;;;;;5052154;28;44670;-40
2023/04/01 21:10:42;;;;;;;1.85;0.98;;;;;;;;;;5050709;28;43681;-40
2023/04/01 21:13:28;;;;;;;2.15;1.10;;;;;;;;;;5052492;28;43364;-40
2023/04/01 21:16:14;;;;;;;3.90;1.30;;;;;;;;;;5040467;28;43409;-40
2023/04/01 21:18:50;;;;;;;3.20;1.35;;;;;;;;;;5052024;28;44692;-40
2023/04/01 21:21:36;;;;;;;2.90;1.40;;;;;;;;;;5057455;28;43679;-40
2023/04/01 21:24:04;;;;;;;2.35;1.13;;;;;;;;;;5048396;28;43377;-40
2023/04/01 21:26:32;;;;;;;3.78;1.42;;;;;;;;;;5055899;28;43438;-40
2023/04/01 21:29:12;;;;;;;2.03;1.15;;;;;;;;;;5051505;28;43794;-40
2023/04/01 21:31:39;;;;;;;4.47;1.75;;;;;;;;;;5052648;28;43335;-40
2023/04/01 21:34:13;;;;;;;2.33;1.15;;;;;;;;;;5055499;28;43311;-40
2023/04/01 21:36:48;;;;;;;2.17;1.20;;;;;;;;;;5034424;28;43502;-40
2023/04/01 21:39:34;;;;;;;2.20;1.20;;;;;;;;;;5046053;28;43860;-40
2023/04/01 21:42:11;;;;;;;2.47;1.17;;;;;;;;;;5049859;28;43995;-40
2023/04/01 21:44:54;;;;;;;3.15;1.27;;;;;;;;;;5056569;28;43534;-40
2023/04/01 21:47:40;;;;;;;2.50;1.17;;;;;;;;;;5047926;28;43479;-40
2023/04/01 21:50:11;;;;;;;1.65;1.00;;;;;;;;;;5054923;28;44687;-40
2023/04/01 21:52:47;;;;;;;1.92;0.93;;;;;;;;;;5050573;28;43365;-40
2023/04/01 21:55:33;;;;;;;2.63;1.30;;;;;;;;;;5053426;28;43496;-40
2023/04/01 21:58:10;;;;;;;3.28;1.50;;;;;;;;;;5056619;28;43479;-40
2023/04/01 22:00:41;;;;;;;1.17;1.08;;;;;;;;;;5052730;28;44676;-40
2023/04/01 22:03:12;;;;;;;1.90;1.05;;;;;;;;;;5053329;28;44132;-40
2023/04/01 22:05:56;;;;;;;1.98;1.02;;;;;;;;;;5056979;28;43419;-40
2023/04/01 22:08:33;;;;;;;1.90;1.02;;;;;;;;;;5050269;28;43486;-40
2023/04/01 22:11:07;;;;;;;1.38;0.98;;;;;;;;;;5053384;28;44985;-40
2023/04/01 22:13:39;;;;;;;2.67;1.20;;;;;;;;;;5055469;28;43795;-40
2023/04/01 22:16:12;;;;;;;1.92;1.20;;;;;;;;;;5044334;28;43442;-40
2023/04/01 22:18:43;;;;;;;2.65;1.20;;;;;;;;;;5056453;28;43502;-40
2023/04/01 22:21:21;;;;;;;3.35;0.95;;;;;;;;;;5053827;28;44826;-40
2023/04/01 22:23:59;;;;;;;2.85;1.13;;;;;;;;;;5055934;28;43430;-40
2023/04/01 22:27:06;;;;;;;3.45;1.27;;;;;;;;;;5059539;28;43387;-40
2023/04/01 22:29:52;;;;;;;2.05;1.13;;;;;;;;;;4978424;28;43584;-40
2023/04/01 22:32:29;;;;;;;2.97;1.10;;;;;;;;;;4978860;28;44768;-40
2023/04/01 22:35:03;;;;;;;2.40;1.25;;;;;;;;;;5018843;28;43524;-40
2023/04/01 22:37:31;;;;;;;2.50;0.93;;;;;;;;;;5047348;28;43475;-40
2023/04/01 22:39:58;;;;;;;2.22;1.42;;;;;;;;;;5050942;28;43507;-40
2023/04/01 22:42:27;;;;;;;2.80;1.30;;;;;;;;;;5052803;28;43743;-40
2023/04/01 22:45:03;;;;;;;1.33;1.15;;;;;;;;;;5054369;28;43617;-40
2023/04/01 22:47:39;;;;;;;2.00;1.23;;;;;;;;;;5054470;28;43490;-40
2023/04/01 22:50:15;;;;;;;2.40;1.10;;;;;;;;;;5047438;28;43470;-40
2023/04/01 22:52:48;;;;;;;2.72;1.10;;;;;;;;;;5054227;28;44726;-40
2023/04/01 22:55:28;;;;;;;1.85;1.13;;;;;;;;;;5052722;28;43494;-40
2023/04/01 22:58:06;;;;;;;3.45;1.27;;;;;;;;;;5053453;28;43375;-40
2023/04/01 23:00:36;;;;;;;3.15;1.27;;;;;;;;;;5047555;28;43756;-40
2023/04/01 23:03:12;;;;;;;2.92;1.33;;;;;;;;;;5051253;28;44701;-40
2023/04/01 23:05:43;;;;;;;3.33;1.48;;;;;;;;;;5050223;28;43977;-40
2023/04/01 23:08:37;;;;;;;2.97;1.20;;;;;;;;;;5054097;28;43545;-40
2023/04/01 23:11:07;;;;;;;1.67;1.20;;;;;;;;;;5053656;28;43514;-40
2023/04/01 23:13:39;;;;;;;2.78;0.90;;;;;;;;;;5050556;28;43894;-40
2023/04/01 23:16:09;;;;;;;2.38;1.02;;;;;;;;;;5047128;28;43472;-40
2023/04/01 23:18:38;;;;;;;1.60;1.38;;;;;;;;;;5054149;28;43492;-40
2023/04/01 23:21:09;;;;;;;2.15;1.35;;;;;;;;;;5049716;28;43517;-40
2023/04/01 23:23:57;;;;;;;2.53;1.20;;;;;;;;;;5052752;28;45140;-40
2023/04/01 23:26:43;;;;;;;1.77;1.23;;;;;;;;;;5053816;28;43857;-40
2023/04/01 23:29:16;;;;;;;3.15;1.10;;;;;;;;;;5050526;28;43511;-40
2023/04/01 23:31:46;;;;;;;3.75;1.48;;;;;;;;;;5053895;28;43386;-40
2023/04/01 23:34:13;;;;;;;2.42;1.50;;;;;;;;;;5053468;28;43794;-40
2023/04/01 23:36:43;;;;;;;2.35;1.20;;;;;;;;;;5057239;28;43946;-40
2023/04/01 23:39:24;;;;;;;2.83;1.20;;;;;;;;;;5046301;28;43494;-40
2023/04/01 23:41:53;;;;;;;1.77;1.30;;;;;;;;;;5047186;28;43402;-40
2023/04/01 23:44:21;;;;;;;3.42;1.58;;;;;;;;;;5053181;28;43823;-40
2023/04/01 23:46:49;;;;;;;1.75;1.23;;;;;;;;;;5045226;28;43707;-40
2023/04/01 23:49:29;;;;;;;2.25;1.30;;;;;;;;;;5049831;28;43382;-39
2023/04/01 23:51:59;;;;;;;2.47;1.20;;;;;;;;;;5054121;28;43481;-40
2023/04/01 23:54:31;;;;;;;1.55;0.98;;;;;;;;;;5051300;28;44726;-40
2023/04/01 23:56:59;;;;;;;2.05;1.33;;;;;;;;;;5049291;28;43431;-41
2023/04/01 23:59:31;;;;;;;2.30;0.90;;;;;;;;;;5053985;28;43355;-40
